Time;durP1;ratioP1;P1;durP2;ratioP2;P2;SDS_P1;SDS_P2;PMS_P1;PMS_P2;Temp;Humidity;BMP_temperature;BMP_pressure;BME280_temperature;BME280_humidity;BME280_pressure;Samples;Min_cycle;Max_cycle;Signal;HPM_P1;HPM_P2
2022/01/10 00:01:02;;;;;;;;;;;;;;;;;;5057321;28;19928;-62
2022/01/10 00:03:28;;;;;;;;;;;;;;;;;;5062221;28;19924;-62
2022/01/10 00:05:54;;;;;;;;;;;;;;;;;;5062773;28;20362;-62
2022/01/10 00:08:20;;;;;;;;;;;;;;;;;;5062156;28;19963;-62
2022/01/10 00:10:46;;;;;;;;;;;;;;;;;;5061499;28;20010;-62
2022/01/10 00:13:12;;;;;;;;;;;;;;;;;;5052894;28;19964;-62
2022/01/10 00:15:38;;;;;;;;;;;;;;;;;;5053553;28;19968;-62
2022/01/10 00:18:04;;;;;;;;;;;;;;;;;;5060801;28;19931;-62
2022/01/10 00:20:30;;;;;;;;;;;;;;;;;;5061802;28;19932;-62
2022/01/10 00:22:56;;;;;;;;;;;;;;;;;;5061147;28;20022;-62
2022/01/10 00:25:22;;;;;;;;;;;;;;;;;;5061273;28;19970;-62
2022/01/10 00:27:49;;;;;;;;;;;;;;;;;;5062100;28;19971;-62
2022/01/10 00:30:15;;;;;;;;;;;;;;;;;;5061655;28;19932;-62
2022/01/10 00:32:41;;;;;;;;;;;;;;;;;;5060349;28;19951;-62
2022/01/10 00:35:07;;;;;;;;;;;;;;;;;;5060472;28;20345;-62
2022/01/10 00:37:34;;;;;;;;;;;;;;;;;;5061186;28;19978;-62
2022/01/10 00:40:00;;;;;;;;;;;;;;;;;;5061664;28;19986;-62
2022/01/10 00:42:26;;;;;;;;;;;;;;;;;;5061270;28;20352;-62
2022/01/10 00:44:53;;;;;;;;;;;;;;;;;;5058957;28;19930;-61
2022/01/10 00:47:19;;;;;;;;;;;;;;;;;;5061001;28;19928;-62
2022/01/10 00:49:45;;;;;;;;;;;;;;;;;;5062367;28;20016;-61
2022/01/10 00:52:11;;;;;;;;;;;;;;;;;;5061399;28;20328;-62
2022/01/10 00:54:37;;;;;;;;;;;;;;;;;;5049439;28;19929;-62
2022/01/10 00:57:03;;;;;;;;;;;;;;;;;;5057156;28;19968;-61
2022/01/10 00:59:30;;;;;;;;;;;;;;;;;;5051657;28;19940;-61
2022/01/10 01:01:56;;;;;;;;;;;;;;;;;;5058933;28;20061;-62
2022/01/10 01:04:22;;;;;;;;;;;;;;;;;;5059414;28;22199;-61
2022/01/10 01:06:48;;;;;;;;;;;;;;;;;;5060658;28;19998;-63
2022/01/10 01:09:16;;;;;;;;;;;;;;;;;;5061757;28;19931;-62
2022/01/10 01:14:23;;;;;;;;;;;;;;;;;;5061087;28;20278;-62
2022/01/10 01:17:07;;;;;;;;;;;;;;;;;;5058667;28;20398;-62
2022/01/10 01:25:02;;;;;;;;;;;;;;;;;;5064164;28;19924;-62
2022/01/10 01:27:28;;;;;;;;;;;;;;;;;;5064257;28;19921;-61
2022/01/10 01:29:54;;;;;;;;;;;;;;;;;;5064964;28;19979;-61
2022/01/10 01:32:20;;;;;;;;;;;;;;;;;;5063685;28;19924;-61
2022/01/10 01:34:46;;;;;;;;;;;;;;;;;;5064752;28;19978;-61
2022/01/10 01:37:12;;;;;;;;;;;;;;;;;;5063430;28;19978;-61
2022/01/10 01:39:38;;;;;;;;;;;;;;;;;;5064749;28;19929;-61
2022/01/10 01:42:18;;;;;;;;;;;;;;;;;;5063909;28;19924;-61
2022/01/10 01:44:44;;;;;;;;;;;;;;;;;;5065148;28;19971;-61
2022/01/10 01:47:10;;;;;;;;;;;;;;;;;;5064175;28;19968;-61
2022/01/10 01:49:36;;;;;;;;;;;;;;;;;;5062734;28;19994;-61
2022/01/10 01:52:02;;;;;;;;;;;;;;;;;;5063891;28;20249;-61
2022/01/10 01:54:28;;;;;;;;;;;;;;;;;;5062579;28;19935;-60
2022/01/10 01:56:54;;;;;;;;;;;;;;;;;;5063361;28;20373;-60
2022/01/10 01:59:20;;;;;;;;;;;;;;;;;;5061063;28;20007;-61
2022/01/10 02:01:46;;;;;;;;;;;;;;;;;;5062637;28;20007;-61
2022/01/10 02:04:11;;;;;;;;;;;;;;;;;;5064316;28;19928;-60
2022/01/10 02:06:37;;;;;;;;;;;;;;;;;;5062849;28;20661;-60
2022/01/10 02:09:03;;;;;;;;;;;;;;;;;;5063151;28;19931;-61
2022/01/10 02:11:29;;;;;;;;;;;;;;;;;;5063383;28;20013;-61
2022/01/10 02:13:55;;;;;;;;;;;;;;;;;;5063330;28;19924;-61
2022/01/10 02:16:32;;;;;;;;;;;;;;;;;;5061112;28;19920;-62
2022/01/10 02:18:58;;;;;;;;;;;;;;;;;;5060377;28;20374;-61
2022/01/10 02:21:24;;;;;;;;;;;;;;;;;;5063215;28;19929;-61
2022/01/10 02:23:50;;;;;;;;;;;;;;;;;;5064197;28;19924;-61
2022/01/10 02:26:16;;;;;;;;;;;;;;;;;;5062290;28;19928;-60
2022/01/10 02:28:42;;;;;;;;;;;;;;;;;;5062208;28;19927;-60
2022/01/10 02:31:08;;;;;;;;;;;;;;;;;;5058113;28;19943;-61
2022/01/10 02:33:34;;;;;;;;;;;;;;;;;;5063895;28;19932;-60
2022/01/10 02:36:16;;;;;;;;;;;;;;;;;;5061138;28;20012;-60
2022/01/10 02:38:42;;;;;;;;;;;;;;;;;;5063969;28;19924;-61
2022/01/10 02:41:08;;;;;;;;;;;;;;;;;;5063611;28;20404;-60
2022/01/10 02:43:34;;;;;;;;;;;;;;;;;;5063568;28;20343;-60
2022/01/10 02:46:00;;;;;;;;;;;;;;;;;;5062945;28;20443;-60
2022/01/10 02:48:26;;;;;;;;;;;;;;;;;;5063017;28;19928;-61
2022/01/10 02:50:52;;;;;;;;;;;;;;;;;;5060574;28;19930;-61
2022/01/10 02:53:18;;;;;;;;;;;;;;;;;;5063451;28;20362;-61
2022/01/10 02:55:44;;;;;;;;;;;;;;;;;;5061852;28;19931;-61
2022/01/10 02:58:10;;;;;;;;;;;;;;;;;;5063767;28;19943;-61
2022/01/10 03:00:36;;;;;;;;;;;;;;;;;;5066853;28;19924;-61
2022/01/10 03:03:06;;;;;;;;;;;;;;;;;;5068398;28;19920;-61
2022/01/10 03:05:32;;;;;;;;;;;;;;;;;;5061687;28;20005;-61
2022/01/10 03:07:59;;;;;;;;;;;;;;;;;;5063420;28;19977;-62
2022/01/10 03:10:25;;;;;;;;;;;;;;;;;;5062676;28;20032;-61
2022/01/10 03:12:51;;;;;;;;;;;;;;;;;;5063379;28;20349;-61
2022/01/10 03:15:18;;;;;;;;;;;;;;;;;;5064158;28;19920;-61
2022/01/10 03:17:44;;;;;;;;;;;;;;;;;;5061720;28;19933;-61
2022/01/10 03:20:10;;;;;;;;;;;;;;;;;;5058981;28;19920;-62
2022/01/10 03:22:36;;;;;;;;;;;;;;;;;;5062093;28;19934;-61
2022/01/10 03:25:02;;;;;;;;;;;;;;;;;;5060351;28;19925;-61
2022/01/10 03:27:28;;;;;;;;;;;;;;;;;;5062967;28;19940;-61
2022/01/10 03:29:54;;;;;;;;;;;;;;;;;;5057531;28;20019;-61
2022/01/10 03:32:20;;;;;;;;;;;;;;;;;;5061971;28;20340;-61
2022/01/10 03:34:46;;;;;;;;;;;;;;;;;;5063105;28;19933;-61
2022/01/10 03:37:12;;;;;;;;;;;;;;;;;;5062019;28;20394;-61
2022/01/10 03:39:38;;;;;;;;;;;;;;;;;;5059087;28;19932;-61
2022/01/10 03:42:04;;;;;;;;;;;;;;;;;;5062065;28;19925;-60
2022/01/10 03:44:29;;;;;;;;;;;;;;;;;;5062423;28;20440;-62
2022/01/10 03:46:56;;;;;;;;;;;;;;;;;;5058865;28;19924;-61
2022/01/10 03:49:23;;;;;;;;;;;;;;;;;;5059852;28;19924;-61
2022/01/10 03:51:48;;;;;;;;;;;;;;;;;;5059596;28;20014;-61
2022/01/10 03:54:14;;;;;;;;;;;;;;;;;;5062124;28;19978;-61
2022/01/10 03:56:40;;;;;;;;;;;;;;;;;;5061542;28;19924;-61
2022/01/10 03:59:06;;;;;;;;;;;;;;;;;;5058764;28;20847;-61
2022/01/10 04:01:33;;;;;;;;;;;;;;;;;;5059635;28;20584;-61
2022/01/10 04:03:59;;;;;;;;;;;;;;;;;;5062052;28;20324;-62
2022/01/10 04:06:25;;;;;;;;;;;;;;;;;;5062400;28;19931;-61
2022/01/10 04:08:51;;;;;;;;;;;;;;;;;;5058244;28;19932;-61
2022/01/10 04:11:17;;;;;;;;;;;;;;;;;;5059313;28;20031;-61
2022/01/10 04:13:43;;;;;;;;;;;;;;;;;;5061654;28;19932;-61
2022/01/10 04:16:09;;;;;;;;;;;;;;;;;;5058208;28;19927;-61
2022/01/10 04:18:35;;;;;;;;;;;;;;;;;;5061989;28;19924;-61
2022/01/10 04:21:01;;;;;;;;;;;;;;;;;;5060894;28;20507;-61
2022/01/10 04:23:27;;;;;;;;;;;;;;;;;;5062363;28;19921;-62
2022/01/10 04:25:53;;;;;;;;;;;;;;;;;;5058140;28;20305;-61
2022/01/10 04:28:19;;;;;;;;;;;;;;;;;;5060738;28;20373;-62
2022/01/10 04:30:45;;;;;;;;;;;;;;;;;;5057552;28;20109;-61
2022/01/10 04:33:17;;;;;;;;;;;;;;;;;;5061572;28;19924;-62
2022/01/10 04:35:43;;;;;;;;;;;;;;;;;;5060936;28;19925;-61
2022/01/10 04:38:09;;;;;;;;;;;;;;;;;;5060812;28;19992;-61
2022/01/10 04:40:35;;;;;;;;;;;;;;;;;;5051524;28;20429;-61
2022/01/10 04:43:01;;;;;;;;;;;;;;;;;;5058028;28;19975;-61
2022/01/10 04:45:27;;;;;;;;;;;;;;;;;;5060833;28;19928;-61
2022/01/10 04:47:53;;;;;;;;;;;;;;;;;;5056376;28;20019;-61
2022/01/10 04:52:46;;;;;;;;;;;;;;;;;;5060142;28;19933;-62
2022/01/10 04:55:12;;;;;;;;;;;;;;;;;;5061457;28;19948;-62
2022/01/10 04:57:38;;;;;;;;;;;;;;;;;;5059029;28;19982;-61
2022/01/10 05:00:04;;;;;;;;;;;;;;;;;;5064876;28;20374;-62
2022/01/10 05:02:30;;;;;;;;;;;;;;;;;;5062874;28;19925;-61
2022/01/10 05:04:56;;;;;;;;;;;;;;;;;;5065971;28;20529;-62
2022/01/10 05:07:22;;;;;;;;;;;;;;;;;;5065619;28;19972;-62
2022/01/10 05:09:48;;;;;;;;;;;;;;;;;;5065363;28;19935;-62
2022/01/10 05:12:14;;;;;;;;;;;;;;;;;;5065113;28;19924;-61
2022/01/10 05:14:40;;;;;;;;;;;;;;;;;;5065395;28;19925;-61
2022/01/10 05:17:06;;;;;;;;;;;;;;;;;;5063413;28;19960;-61
2022/01/10 05:19:32;;;;;;;;;;;;;;;;;;5063824;28;19971;-61
2022/01/10 05:21:58;;;;;;;;;;;;;;;;;;5065758;28;19968;-61
2022/01/10 05:24:24;;;;;;;;;;;;;;;;;;5064423;28;20400;-61
2022/01/10 05:26:50;;;;;;;;;;;;;;;;;;5064314;28;19933;-61
2022/01/10 05:29:16;;;;;;;;;;;;;;;;;;5064803;28;20013;-62
2022/01/10 05:31:42;;;;;;;;;;;;;;;;;;5062625;28;20401;-62
2022/01/10 05:34:08;;;;;;;;;;;;;;;;;;5063220;28;20301;-61
2022/01/10 05:36:34;;;;;;;;;;;;;;;;;;5061708;28;20473;-66
2022/01/10 05:39:00;;;;;;;;;;;;;;;;;;5064416;28;19942;-61
2022/01/10 05:41:26;;;;;;;;;;;;;;;;;;5064617;28;20444;-62
2022/01/10 05:43:55;;;;;;;;;;;;;;;;;;5064721;28;19924;-61
2022/01/10 05:46:21;;;;;;;;;;;;;;;;;;5057962;28;19951;-61
2022/01/10 05:48:51;;;;;;;;;;;;;;;;;;5059148;28;19924;-60
2022/01/10 05:51:17;;;;;;;;;;;;;;;;;;5064102;28;20421;-62
2022/01/10 05:53:43;;;;;;;;;;;;;;;;;;5065177;28;20441;-61
2022/01/10 05:56:09;;;;;;;;;;;;;;;;;;5062407;28;20032;-61
2022/01/10 05:58:35;;;;;;;;;;;;;;;;;;5061425;28;20015;-66
2022/01/10 06:01:01;;;;;;;;;;;;;;;;;;5061166;28;20389;-62
2022/01/10 06:03:27;;;;;;;;;;;;;;;;;;5064804;28;19964;-63
2022/01/10 06:05:53;;;;;;;;;;;;;;;;;;5062457;28;19939;-62
2022/01/10 06:08:19;;;;;;;;;;;;;;;;;;5062885;28;19924;-60
2022/01/10 06:10:45;;;;;;;;;;;;;;;;;;5065269;28;20423;-60
2022/01/10 06:13:11;;;;;;;;;;;;;;;;;;5064937;28;20063;-62
2022/01/10 06:15:37;;;;;;;;;;;;;;;;;;5059952;28;20031;-63
2022/01/10 06:18:03;;;;;;;;;;;;;;;;;;5067266;28;19982;-62
2022/01/10 06:20:29;;;;;;;;;;;;;;;;;;5065744;28;19924;-62
2022/01/10 06:22:55;;;;;;;;;;;;;;;;;;5066895;28;20436;-62
2022/01/10 06:25:21;;;;;;;;;;;;;;;;;;5066327;28;19998;-62
2022/01/10 06:27:47;;;;;;;;;;;;;;;;;;5066507;28;20417;-62
2022/01/10 06:30:13;;;;;;;;;;;;;;;;;;5065911;28;19936;-62
2022/01/10 06:32:39;;;;;;;;;;;;;;;;;;5058804;28;20008;-63
2022/01/10 06:35:05;;;;;;;;;;;;;;;;;;5056162;28;20015;-60
2022/01/10 06:37:31;;;;;;;;;;;;;;;;;;5065032;28;19936;-60
2022/01/10 06:39:57;;;;;;;;;;;;;;;;;;5065485;28;20377;-59
2022/01/10 06:42:23;;;;;;;;;;;;;;;;;;5065848;28;19925;-59
2022/01/10 06:44:49;;;;;;;;;;;;;;;;;;5066010;28;19985;-64
2022/01/10 06:47:15;;;;;;;;;;;;;;;;;;5065998;28;20147;-60
2022/01/10 06:49:41;;;;;;;;;;;;;;;;;;5064352;28;20024;-61
2022/01/10 06:52:07;;;;;;;;;;;;;;;;;;5065587;28;20447;-61
2022/01/10 06:54:33;;;;;;;;;;;;;;;;;;5066011;28;19943;-61
2022/01/10 06:56:59;;;;;;;;;;;;;;;;;;5065608;28;19939;-61
2022/01/10 06:59:25;;;;;;;;;;;;;;;;;;5065621;28;20011;-61
2022/01/10 07:01:52;;;;;;;;;;;;;;;;;;5064192;28;19928;-61
2022/01/10 07:04:17;;;;;;;;;;;;;;;;;;5063230;28;19924;-66
2022/01/10 07:06:43;;;;;;;;;;;;;;;;;;5060124;28;19924;-61
2022/01/10 07:09:09;;;;;;;;;;;;;;;;;;5050028;28;19931;-63
2022/01/10 07:11:35;;;;;;;;;;;;;;;;;;5053532;28;19936;-60
2022/01/10 07:14:01;;;;;;;;;;;;;;;;;;5061071;28;20378;-61
2022/01/10 07:16:27;;;;;;;;;;;;;;;;;;5059143;28;19928;-64
2022/01/10 07:18:54;;;;;;;;;;;;;;;;;;5064156;28;19935;-62
2022/01/10 07:21:20;;;;;;;;;;;;;;;;;;5062549;28;20301;-62
2022/01/10 07:23:48;;;;;;;;;;;;;;;;;;5064526;28;20398;-61
2022/01/10 07:26:14;;;;;;;;;;;;;;;;;;5063587;28;19951;-61
2022/01/10 07:28:40;;;;;;;;;;;;;;;;;;5064344;28;20389;-65
2022/01/10 07:31:06;;;;;;;;;;;;;;;;;;5064104;28;19924;-61
2022/01/10 07:33:32;;;;;;;;;;;;;;;;;;5064045;28;20422;-62
2022/01/10 07:35:58;;;;;;;;;;;;;;;;;;5064321;28;19934;-62
2022/01/10 07:38:24;;;;;;;;;;;;;;;;;;5063886;28;19924;-61
2022/01/10 07:40:50;;;;;;;;;;;;;;;;;;5064046;28;19931;-59
2022/01/10 07:43:16;;;;;;;;;;;;;;;;;;5064412;28;20124;-60
2022/01/10 07:45:42;;;;;;;;;;;;;;;;;;5063242;28;19928;-60
2022/01/10 07:48:07;;;;;;;;;;;;;;;;;;5064583;28;19924;-60
2022/01/10 07:50:33;;;;;;;;;;;;;;;;;;5058885;28;20427;-60
2022/01/10 07:52:59;;;;;;;;;;;;;;;;;;5061896;28;19924;-60
2022/01/10 07:55:25;;;;;;;;;;;;;;;;;;5065846;28;20370;-60
2022/01/10 07:57:51;;;;;;;;;;;;;;;;;;5049062;28;19921;-60
2022/01/10 08:00:17;;;;;;;;;;;;;;;;;;5045598;28;19979;-65
2022/01/10 08:02:43;;;;;;;;;;;;;;;;;;5046733;28;19925;-60
2022/01/10 08:05:10;;;;;;;;;;;;;;;;;;5053321;28;19932;-59
2022/01/10 08:07:36;;;;;;;;;;;;;;;;;;5064904;28;19939;-59
2022/01/10 08:10:02;;;;;;;;;;;;;;;;;;5065981;28;20289;-60
2022/01/10 08:12:28;;;;;;;;;;;;;;;;;;5066223;28;19925;-60
2022/01/10 08:14:54;;;;;;;;;;;;;;;;;;5064660;28;19998;-60
2022/01/10 08:17:20;;;;;;;;;;;;;;;;;;5065492;28;20605;-61
2022/01/10 08:19:46;;;;;;;;;;;;;;;;;;5066379;28;20011;-59
2022/01/10 08:22:12;;;;;;;;;;;;;;;;;;5064760;28;19924;-60
2022/01/10 08:24:38;;;;;;;;;;;;;;;;;;5066529;28;20397;-60
2022/01/10 08:27:04;;;;;;;;;;;;;;;;;;5066688;28;19925;-60
2022/01/10 08:29:30;;;;;;;;;;;;;;;;;;5065655;28;19924;-60
2022/01/10 08:31:56;;;;;;;;;;;;;;;;;;5065161;28;20031;-60
2022/01/10 08:34:24;;;;;;;;;;;;;;;;;;5066059;28;20378;-60
2022/01/10 08:36:50;;;;;;;;;;;;;;;;;;5066108;28;20566;-61
2022/01/10 08:39:16;;;;;;;;;;;;;;;;;;5066263;28;20013;-60
2022/01/10 08:41:42;;;;;;;;;;;;;;;;;;5065763;28;19930;-65
2022/01/10 08:44:08;;;;;;;;;;;;;;;;;;5065405;28;19928;-60
2022/01/10 08:46:34;;;;;;;;;;;;;;;;;;5064749;28;19932;-61
2022/01/10 08:49:00;;;;;;;;;;;;;;;;;;5064490;28;19924;-60
2022/01/10 08:51:27;;;;;;;;;;;;;;;;;;5064541;28;19948;-61
2022/01/10 08:53:53;;;;;;;;;;;;;;;;;;5065201;28;19925;-60
2022/01/10 08:56:19;;;;;;;;;;;;;;;;;;5064925;28;19924;-61
2022/01/10 08:58:45;;;;;;;;;;;;;;;;;;5065300;28;19924;-60
2022/01/10 09:01:11;;;;;;;;;;;;;;;;;;5063553;28;19928;-60
2022/01/10 09:03:37;;;;;;;;;;;;;;;;;;5065289;28;19954;-60
2022/01/10 09:06:03;;;;;;;;;;;;;;;;;;5065150;28;20002;-60
2022/01/10 09:08:31;;;;;;;;;;;;;;;;;;5065310;28;20500;-60
2022/01/10 09:10:57;;;;;;;;;;;;;;;;;;5064833;28;19932;-61
2022/01/10 09:13:23;;;;;;;;;;;;;;;;;;5065127;28;19925;-60
2022/01/10 09:15:49;;;;;;;;;;;;;;;;;;5064613;28;20328;-60
2022/01/10 09:18:16;;;;;;;;;;;;;;;;;;5064810;28;19924;-60
2022/01/10 09:20:42;;;;;;;;;;;;;;;;;;5065525;28;19924;-60
2022/01/10 09:23:08;;;;;;;;;;;;;;;;;;5065119;28;19920;-61
2022/01/10 09:25:34;;;;;;;;;;;;;;;;;;5064603;28;20054;-60
2022/01/10 09:28:00;;;;;;;;;;;;;;;;;;5064830;28;19921;-61
2022/01/10 09:30:26;;;;;;;;;;;;;;;;;;5064155;28;19925;-60
2022/01/10 09:32:53;;;;;;;;;;;;;;;;;;5064999;28;19931;-60
2022/01/10 09:35:19;;;;;;;;;;;;;;;;;;5044527;28;19925;-61
2022/01/10 09:37:45;;;;;;;;;;;;;;;;;;5044662;28;19931;-61
2022/01/10 09:40:11;;;;;;;;;;;;;;;;;;5051458;28;19931;-61
2022/01/10 09:42:38;;;;;;;;;;;;;;;;;;5064153;28;20256;-60
2022/01/10 09:45:04;;;;;;;;;;;;;;;;;;5066861;28;20290;-60
2022/01/10 09:47:30;;;;;;;;;;;;;;;;;;5067520;28;20380;-60
2022/01/10 09:49:56;;;;;;;;;;;;;;;;;;5067930;28;19925;-61
2022/01/10 09:52:22;;;;;;;;;;;;;;;;;;5068247;28;20057;-60
2022/01/10 09:54:50;;;;;;;;;;;;;;;;;;5067772;28;19924;-60
2022/01/10 09:57:16;;;;;;;;;;;;;;;;;;5068424;28;20468;-61
2022/01/10 09:59:43;;;;;;;;;;;;;;;;;;5063841;28;20429;-60
2022/01/10 10:02:09;;;;;;;;;;;;;;;;;;5061103;28;20439;-61
2022/01/10 10:04:35;;;;;;;;;;;;;;;;;;5064138;28;19935;-61
2022/01/10 10:07:01;;;;;;;;;;;;;;;;;;5048145;28;20008;-60
2022/01/10 10:09:27;;;;;;;;;;;;;;;;;;5052723;28;20019;-60
2022/01/10 10:11:53;;;;;;;;;;;;;;;;;;5058390;28;19924;-60
2022/01/10 10:14:20;;;;;;;;;;;;;;;;;;5054176;28;20421;-61
2022/01/10 10:16:49;;;;;;;;;;;;;;;;;;5055141;28;20286;-61
2022/01/10 10:19:15;;;;;;;;;;;;;;;;;;5079613;28;19978;-61
2022/01/10 10:21:41;;;;;;;;;;;;;;;;;;5067876;28;19925;-60
2022/01/10 10:24:07;;;;;;;;;;;;;;;;;;5067870;28;19921;-60
2022/01/10 10:26:33;;;;;;;;;;;;;;;;;;5066140;28;20305;-61
2022/01/10 10:28:59;;;;;;;;;;;;;;;;;;5056335;28;19924;-61
2022/01/10 10:31:25;;;;;;;;;;;;;;;;;;5063530;28;20471;-61
2022/01/10 10:33:51;;;;;;;;;;;;;;;;;;5065119;28;19928;-60
2022/01/10 10:36:17;;;;;;;;;;;;;;;;;;5065667;28;19929;-61
2022/01/10 10:38:43;;;;;;;;;;;;;;;;;;5063645;28;19932;-62
2022/01/10 10:41:09;;;;;;;;;;;;;;;;;;5065088;28;20015;-61
2022/01/10 10:43:35;;;;;;;;;;;;;;;;;;5065325;28;19928;-61
2022/01/10 10:46:01;;;;;;;;;;;;;;;;;;5063199;28;19928;-61
2022/01/10 10:48:28;;;;;;;;;;;;;;;;;;5064343;28;20471;-61
2022/01/10 10:50:54;;;;;;;;;;;;;;;;;;5063654;28;19929;-61
2022/01/10 10:53:20;;;;;;;;;;;;;;;;;;5064231;28;19934;-61
2022/01/10 10:55:46;;;;;;;;;;;;;;;;;;5065370;28;19951;-61
2022/01/10 10:58:12;;;;;;;;;;;;;;;;;;5065511;28;20340;-61
2022/01/10 11:00:38;;;;;;;;;;;;;;;;;;5063669;28;20450;-61
2022/01/10 11:03:04;;;;;;;;;;;;;;;;;;5065200;28;20594;-61
2022/01/10 11:05:30;;;;;;;;;;;;;;;;;;5064272;28;19928;-61
2022/01/10 11:07:56;;;;;;;;;;;;;;;;;;5063498;28;19924;-61
2022/01/10 11:10:24;;;;;;;;;;;;;;;;;;5064275;28;19924;-60
2022/01/10 11:12:50;;;;;;;;;;;;;;;;;;5064625;28;19925;-60
2022/01/10 11:15:16;;;;;;;;;;;;;;;;;;5064397;28;19928;-61
2022/01/10 11:17:42;;;;;;;;;;;;;;;;;;5063855;28;20338;-61
2022/01/10 11:20:08;;;;;;;;;;;;;;;;;;5064641;28;19990;-60
2022/01/10 11:22:35;;;;;;;;;;;;;;;;;;5064415;28;19934;-62
2022/01/10 11:25:03;;;;;;;;;;;;;;;;;;5064428;28;19951;-60
2022/01/10 11:27:29;;;;;;;;;;;;;;;;;;5063672;28;19960;-60
2022/01/10 11:29:56;;;;;;;;;;;;;;;;;;5063022;28;19928;-61
2022/01/10 11:32:22;;;;;;;;;;;;;;;;;;5061615;28;19935;-60
2022/01/10 11:34:48;;;;;;;;;;;;;;;;;;5064176;28;19928;-62
2022/01/10 11:37:14;;;;;;;;;;;;;;;;;;5064812;28;19924;-60
2022/01/10 11:39:40;;;;;;;;;;;;;;;;;;5063921;28;19971;-61
2022/01/10 11:42:06;;;;;;;;;;;;;;;;;;5063768;28;20826;-60
2022/01/10 11:44:32;;;;;;;;;;;;;;;;;;5063011;28;19924;-61
2022/01/10 11:46:58;;;;;;;;;;;;;;;;;;5064139;28;20515;-61
2022/01/10 11:49:25;;;;;;;;;;;;;;;;;;5062724;28;19921;-61
2022/01/10 11:51:51;;;;;;;;;;;;;;;;;;5063059;28;19929;-62
2022/01/10 11:54:22;;;;;;;;;;;;;;;;;;5062479;28;21386;-61
2022/01/10 11:56:48;;;;;;;;;;;;;;;;;;5063974;28;20007;-64
2022/01/10 11:59:14;;;;;;;;;;;;;;;;;;5063580;28;19937;-62
2022/01/10 12:01:40;;;;;;;;;;;;;;;;;;5063730;28;19928;-61
2022/01/10 12:04:06;;;;;;;;;;;;;;;;;;5063133;28;19971;-61
2022/01/10 12:06:32;;;;;;;;;;;;;;;;;;5062453;28;20394;-62
2022/01/10 12:08:58;;;;;;;;;;;;;;;;;;5063382;28;20626;-62
2022/01/10 12:11:24;;;;;;;;;;;;;;;;;;5063429;28;19930;-62
2022/01/10 12:13:52;;;;;;;;;;;;;;;;;;5063164;28;19982;-62
2022/01/10 12:16:18;;;;;;;;;;;;;;;;;;5061383;28;19924;-66
2022/01/10 12:18:44;;;;;;;;;;;;;;;;;;5063963;28;19943;-62
2022/01/10 12:21:10;;;;;;;;;;;;;;;;;;5062573;28;19924;-62
2022/01/10 12:23:36;;;;;;;;;;;;;;;;;;5062500;28;19951;-62
2022/01/10 12:26:02;;;;;;;;;;;;;;;;;;5063591;28;20374;-62
2022/01/10 12:28:28;;;;;;;;;;;;;;;;;;5062020;28;19932;-63
2022/01/10 12:30:55;;;;;;;;;;;;;;;;;;5061890;28;20374;-62
2022/01/10 12:33:21;;;;;;;;;;;;;;;;;;5062214;28;19925;-63
2022/01/10 12:35:46;;;;;;;;;;;;;;;;;;5063054;28;20400;-62
2022/01/10 12:38:12;;;;;;;;;;;;;;;;;;5062846;28;19966;-62
2022/01/10 12:40:38;;;;;;;;;;;;;;;;;;5061324;28;20569;-62
2022/01/10 12:43:04;;;;;;;;;;;;;;;;;;5062833;28;19924;-63
2022/01/10 12:45:31;;;;;;;;;;;;;;;;;;5061603;28;19924;-63
2022/01/10 12:47:57;;;;;;;;;;;;;;;;;;5062690;28;19924;-62
2022/01/10 12:50:23;;;;;;;;;;;;;;;;;;5060798;28;19932;-62
2022/01/10 12:52:49;;;;;;;;;;;;;;;;;;5059796;28;19924;-63
2022/01/10 12:55:15;;;;;;;;;;;;;;;;;;5065312;28;19924;-63
2022/01/10 12:57:41;;;;;;;;;;;;;;;;;;5065263;28;20425;-62
2022/01/10 13:00:07;;;;;;;;;;;;;;;;;;5064793;28;19925;-63
2022/01/10 13:02:34;;;;;;;;;;;;;;;;;;5065246;28;19928;-62
2022/01/10 13:05:00;;;;;;;;;;;;;;;;;;5065298;28;19924;-63
2022/01/10 13:07:26;;;;;;;;;;;;;;;;;;5065353;28;19931;-63
2022/01/10 13:09:52;;;;;;;;;;;;;;;;;;5065232;28;19925;-63
2022/01/10 13:12:28;;;;;;;;;;;;;;;;;;5065302;28;19971;-63
2022/01/10 13:14:54;;;;;;;;;;;;;;;;;;5064336;28;19924;-63
2022/01/10 13:17:20;;;;;;;;;;;;;;;;;;5065211;28;19924;-63
2022/01/10 13:19:46;;;;;;;;;;;;;;;;;;5068283;28;20400;-63
2022/01/10 13:22:13;;;;;;;;;;;;;;;;;;5069289;28;19945;-63
2022/01/10 13:24:40;;;;;;;;;;;;;;;;;;5068542;28;20298;-67
2022/01/10 13:27:06;;;;;;;;;;;;;;;;;;5068882;28;19932;-64
2022/01/10 13:29:32;;;;;;;;;;;;;;;;;;5068263;28;19931;-63
2022/01/10 13:31:58;;;;;;;;;;;;;;;;;;5068766;28;19925;-63
2022/01/10 13:34:24;;;;;;;;;;;;;;;;;;5068898;28;19931;-63
2022/01/10 13:36:52;;;;;;;;;;;;;;;;;;5069009;28;19928;-64
2022/01/10 13:39:18;;;;;;;;;;;;;;;;;;5067952;28;19920;-65
2022/01/10 13:41:44;;;;;;;;;;;;;;;;;;5068860;28;19924;-63
2022/01/10 13:44:10;;;;;;;;;;;;;;;;;;5067419;28;20461;-63
2022/01/10 13:46:36;;;;;;;;;;;;;;;;;;5067534;28;19924;-63
2022/01/10 13:49:02;;;;;;;;;;;;;;;;;;5068547;28;19924;-63
2022/01/10 13:51:30;;;;;;;;;;;;;;;;;;5068501;28;20190;-66
2022/01/10 13:53:56;;;;;;;;;;;;;;;;;;5068310;28;19925;-68
2022/01/10 13:56:22;;;;;;;;;;;;;;;;;;5066357;28;19943;-66
2022/01/10 13:58:49;;;;;;;;;;;;;;;;;;5064298;28;19929;-67
2022/01/10 14:01:15;;;;;;;;;;;;;;;;;;5065196;28;19936;-67
2022/01/10 14:03:41;;;;;;;;;;;;;;;;;;5064965;28;19924;-66
2022/01/10 14:06:07;;;;;;;;;;;;;;;;;;5065358;28;20629;-67
2022/01/10 14:08:33;;;;;;;;;;;;;;;;;;5065353;28;19933;-67
2022/01/10 14:11:01;;;;;;;;;;;;;;;;;;5065476;28;20424;-67
2022/01/10 14:13:27;;;;;;;;;;;;;;;;;;5065690;28;19928;-67
2022/01/10 14:15:53;;;;;;;;;;;;;;;;;;5064047;28;19924;-67
2022/01/10 14:18:19;;;;;;;;;;;;;;;;;;5064413;28;19929;-67
2022/01/10 14:20:45;;;;;;;;;;;;;;;;;;5064741;28;19929;-67
2022/01/10 14:23:12;;;;;;;;;;;;;;;;;;5065117;28;19928;-67
2022/01/10 14:25:38;;;;;;;;;;;;;;;;;;5065339;28;20167;-67
2022/01/10 14:28:04;;;;;;;;;;;;;;;;;;5065910;28;19924;-67
2022/01/10 14:30:30;;;;;;;;;;;;;;;;;;5064429;28;19934;-67
2022/01/10 14:32:57;;;;;;;;;;;;;;;;;;5064906;28;19951;-67
2022/01/10 14:35:23;;;;;;;;;;;;;;;;;;5065096;28;19943;-66
2022/01/10 14:37:50;;;;;;;;;;;;;;;;;;5065646;28;19928;-68
2022/01/10 14:40:16;;;;;;;;;;;;;;;;;;5065852;28;19928;-68
2022/01/10 14:42:42;;;;;;;;;;;;;;;;;;5064556;28;19924;-67
2022/01/10 14:45:10;;;;;;;;;;;;;;;;;;5064111;28;20376;-66
2022/01/10 14:47:36;;;;;;;;;;;;;;;;;;5064652;28;19928;-67
2022/01/10 14:50:02;;;;;;;;;;;;;;;;;;5064570;28;19931;-64
2022/01/10 14:52:28;;;;;;;;;;;;;;;;;;5063561;28;19936;-65
2022/01/10 14:54:54;;;;;;;;;;;;;;;;;;5065095;28;19924;-66
2022/01/10 14:57:20;;;;;;;;;;;;;;;;;;5064325;28;19920;-66
2022/01/10 14:59:46;;;;;;;;;;;;;;;;;;5063578;28;19967;-66
2022/01/10 15:02:12;;;;;;;;;;;;;;;;;;5064495;28;19977;-63
2022/01/10 15:04:38;;;;;;;;;;;;;;;;;;5064784;28;20433;-68
2022/01/10 15:07:04;;;;;;;;;;;;;;;;;;5064011;28;20393;-68
2022/01/10 15:09:30;;;;;;;;;;;;;;;;;;5064405;28;19974;-69
2022/01/10 15:11:56;;;;;;;;;;;;;;;;;;5064583;28;20027;-69
2022/01/10 15:14:22;;;;;;;;;;;;;;;;;;5063034;28;20412;-71
2022/01/10 15:16:48;;;;;;;;;;;;;;;;;;5064863;28;19924;-68
2022/01/10 15:19:14;;;;;;;;;;;;;;;;;;5064818;28;20431;-68
2022/01/10 15:21:43;;;;;;;;;;;;;;;;;;5063654;28;19960;-67
2022/01/10 15:24:09;;;;;;;;;;;;;;;;;;5064152;28;20016;-68
2022/01/10 15:26:35;;;;;;;;;;;;;;;;;;5063956;28;20015;-68
2022/01/10 15:29:03;;;;;;;;;;;;;;;;;;5062676;28;19925;-69
2022/01/10 15:31:29;;;;;;;;;;;;;;;;;;5063382;28;19928;-68
2022/01/10 15:33:55;;;;;;;;;;;;;;;;;;5063412;28;19935;-68
2022/01/10 15:36:21;;;;;;;;;;;;;;;;;;5062562;28;19982;-68
2022/01/10 15:38:51;;;;;;;;;;;;;;;;;;5063964;28;19932;-68
2022/01/10 15:41:18;;;;;;;;;;;;;;;;;;5063217;28;20456;-68
2022/01/10 15:43:44;;;;;;;;;;;;;;;;;;5060627;28;19928;-73
2022/01/10 15:46:10;;;;;;;;;;;;;;;;;;5063129;28;20011;-68
2022/01/10 15:48:36;;;;;;;;;;;;;;;;;;5061513;28;20116;-68
2022/01/10 15:51:02;;;;;;;;;;;;;;;;;;5063647;28;19928;-68
2022/01/10 15:53:28;;;;;;;;;;;;;;;;;;5063185;28;20345;-69
2022/01/10 15:55:54;;;;;;;;;;;;;;;;;;5063912;28;20014;-68
2022/01/10 15:58:20;;;;;;;;;;;;;;;;;;5056965;28;19963;-68
2022/01/10 16:00:46;;;;;;;;;;;;;;;;;;5056819;28;19925;-71
2022/01/10 16:03:12;;;;;;;;;;;;;;;;;;5061335;28;19978;-69
2022/01/10 16:05:41;;;;;;;;;;;;;;;;;;5063194;28;19929;-68
2022/01/10 16:08:07;;;;;;;;;;;;;;;;;;5063577;28;20347;-68
2022/01/10 16:10:33;;;;;;;;;;;;;;;;;;5063922;28;20476;-69
2022/01/10 16:12:59;;;;;;;;;;;;;;;;;;5061942;28;19924;-68
2022/01/10 16:15:25;;;;;;;;;;;;;;;;;;5061474;28;20012;-68
2022/01/10 16:17:53;;;;;;;;;;;;;;;;;;5063142;28;20739;-69
2022/01/10 16:20:19;;;;;;;;;;;;;;;;;;5062035;28;19967;-69
2022/01/10 16:22:45;;;;;;;;;;;;;;;;;;5061867;28;19931;-69
2022/01/10 16:25:11;;;;;;;;;;;;;;;;;;5063044;28;19949;-70
2022/01/10 16:27:37;;;;;;;;;;;;;;;;;;5062081;28;19932;-69
2022/01/10 16:30:03;;;;;;;;;;;;;;;;;;5062100;28;19933;-68
2022/01/10 16:32:29;;;;;;;;;;;;;;;;;;5063237;28;19924;-69
2022/01/10 16:34:56;;;;;;;;;;;;;;;;;;5064295;28;19925;-69
2022/01/10 16:37:22;;;;;;;;;;;;;;;;;;5060585;28;20449;-68
2022/01/10 16:39:48;;;;;;;;;;;;;;;;;;5062171;28;19971;-68
2022/01/10 16:42:15;;;;;;;;;;;;;;;;;;5062567;28;20017;-69
2022/01/10 16:44:41;;;;;;;;;;;;;;;;;;5061338;28;20353;-70
2022/01/10 16:47:08;;;;;;;;;;;;;;;;;;5062985;28;20433;-70
2022/01/10 16:49:34;;;;;;;;;;;;;;;;;;5061481;28;20405;-72